createdAt,value
2022-12-14T00:01:20.194Z,83.70
2022-12-14T00:03:47.414Z,84.57
2022-12-14T00:06:25.731Z,85.26
2022-12-14T00:08:54.176Z,84.47
2022-12-14T00:11:22.632Z,84.79
2022-12-14T00:13:54.771Z,83.66
2022-12-14T00:16:22.503Z,83.53
2022-12-14T00:18:52.442Z,84.33
2022-12-14T00:21:20.138Z,84.29
2022-12-14T00:23:48.312Z,84.57
2022-12-14T00:26:21.495Z,84.00
2022-12-14T00:28:50.124Z,83.67
2022-12-14T00:31:17.237Z,84.84
2022-12-14T00:33:44.682Z,84.60
2022-12-14T00:36:12.299Z,83.70
2022-12-14T00:38:39.938Z,82.43
2022-12-14T00:41:07.328Z,84.11
2022-12-14T00:43:33.881Z,83.47
2022-12-14T00:46:00.531Z,84.17
2022-12-14T00:48:28.262Z,83.85
2022-12-14T00:50:56.236Z,84.50
2022-12-14T00:53:24.263Z,84.29
2022-12-14T00:55:51.557Z,84.44
2022-12-14T00:58:21.162Z,83.79
2022-12-14T01:00:57.874Z,80.74
2022-12-14T01:03:24.913Z,81.66
2022-12-14T01:05:51.737Z,82.14
2022-12-14T01:08:20.452Z,81.62
2022-12-14T01:10:46.976Z,82.96
2022-12-14T01:13:13.515Z,83.68
2022-12-14T01:15:40.224Z,84.13
2022-12-14T01:18:06.775Z,84.48
2022-12-14T01:20:33.368Z,84.36
2022-12-14T01:22:59.973Z,84.58
2022-12-14T01:25:26.571Z,84.26
2022-12-14T01:27:53.179Z,84.05
2022-12-14T01:30:20.197Z,84.89
2022-12-14T01:32:47.252Z,84.41
2022-12-14T01:35:14.036Z,84.57
2022-12-14T01:37:40.833Z,83.94
2022-12-14T01:40:08.022Z,83.33
2022-12-14T01:42:37.558Z,84.25
2022-12-14T01:45:05.765Z,84.93
2022-12-14T01:47:44.693Z,83.19
2022-12-14T01:50:26.525Z,82.84
2022-12-14T01:52:59.052Z,82.42
2022-12-14T01:55:34.809Z,82.11
2022-12-14T01:58:10.975Z,80.27
2022-12-14T02:00:38.377Z,82.88
2022-12-14T02:03:10.900Z,84.47
2022-12-14T02:05:42.515Z,83.41
2022-12-14T02:08:09.511Z,83.27
2022-12-14T02:10:36.410Z,84.27
2022-12-14T02:13:14.626Z,84.60
2022-12-14T02:15:42.157Z,84.73
2022-12-14T02:18:12.480Z,84.35
2022-12-14T02:21:04.713Z,83.45
2022-12-14T02:24:08.888Z,83.75
2022-12-14T02:26:59.936Z,82.83
2022-12-14T02:29:51.099Z,81.50
2022-12-14T02:32:35.008Z,81.11
2022-12-14T02:35:29.458Z,83.70
2022-12-14T02:37:59.067Z,84.21
2022-12-14T02:40:34.509Z,84.68
2022-12-14T02:43:18.966Z,84.41
2022-12-14T02:46:18.318Z,81.61
2022-12-14T02:48:57.944Z,81.80
2022-12-14T02:51:28.610Z,83.25
2022-12-14T02:54:04.049Z,83.32
2022-12-14T02:56:45.339Z,83.45
2022-12-14T02:59:12.165Z,84.42
2022-12-14T03:01:40.977Z,82.50
2022-12-14T03:04:07.867Z,82.49
2022-12-14T03:06:34.435Z,83.73
2022-12-14T03:09:04.873Z,84.26
2022-12-14T03:11:48.868Z,86.06
2022-12-14T03:14:27.680Z,85.45
2022-12-14T03:17:00.940Z,84.57
2022-12-14T03:19:38.926Z,85.46
2022-12-14T03:22:15.804Z,84.71
2022-12-14T03:24:53.347Z,83.47
2022-12-14T03:27:27.553Z,83.70
2022-12-14T03:30:03.163Z,84.88
2022-12-14T03:32:32.536Z,85.47
2022-12-14T03:35:04.433Z,84.08
2022-12-14T03:37:52.956Z,83.01
2022-12-14T03:40:26.305Z,81.84
2022-12-14T03:42:59.675Z,81.30
2022-12-14T03:45:36.931Z,83.71
2022-12-14T03:48:06.294Z,84.01
2022-12-14T03:50:35.632Z,84.64
2022-12-14T03:53:27.436Z,85.12
2022-12-14T03:56:10.436Z,84.46
2022-12-14T03:59:06.935Z,83.42
2022-12-14T04:02:09.552Z,83.07
2022-12-14T04:04:42.161Z,83.87
2022-12-14T04:07:21.644Z,82.94
2022-12-14T04:10:39.723Z,83.49
2022-12-14T04:13:32.517Z,85.03
2022-12-14T04:16:21.918Z,85.31
2022-12-14T04:19:00.463Z,85.66
2022-12-14T04:21:43.010Z,85.63
2022-12-14T04:24:38.859Z,84.71
2022-12-14T04:27:15.282Z,85.70
2022-12-14T04:29:56.428Z,84.85
2022-12-14T04:32:40.987Z,83.85
2022-12-14T04:35:14.788Z,84.74
2022-12-14T04:37:44.705Z,85.20
2022-12-14T04:40:22.073Z,84.38
2022-12-14T04:42:53.903Z,85.52
2022-12-14T04:45:34.091Z,85.69
2022-12-14T04:48:10.397Z,85.62
2022-12-14T04:50:46.022Z,85.42
2022-12-14T04:53:20.850Z,85.11
2022-12-14T04:56:16.509Z,85.27
2022-12-14T04:58:43.484Z,84.77
2022-12-14T05:01:16.640Z,84.26
2022-12-14T05:04:13.843Z,84.61
2022-12-14T05:07:24.688Z,83.20
2022-12-14T05:10:03.481Z,85.27
2022-12-14T05:12:34.332Z,85.15
2022-12-14T05:15:09.885Z,83.67
2022-12-14T05:17:37.767Z,83.33
2022-12-14T05:20:05.626Z,83.55
2022-12-14T05:22:32.516Z,84.60
2022-12-14T05:24:59.075Z,83.95
2022-12-14T05:27:25.649Z,82.38
2022-12-14T05:29:52.788Z,83.30
2022-12-14T05:32:19.395Z,85.29
2022-12-14T05:34:45.908Z,85.47
2022-12-14T05:37:18.000Z,84.69
2022-12-14T05:39:45.010Z,84.40
2022-12-14T05:42:11.581Z,84.49
2022-12-14T05:44:38.254Z,84.56
2022-12-14T05:47:05.003Z,84.86
2022-12-14T05:49:31.622Z,85.22
2022-12-14T05:51:58.294Z,83.95
2022-12-14T05:54:24.875Z,83.81
2022-12-14T05:56:51.702Z,84.74
2022-12-14T05:59:18.657Z,83.42
2022-12-14T06:01:49.390Z,82.52
2022-12-14T06:04:18.264Z,82.88
2022-12-14T06:06:45.036Z,80.86
2022-12-14T06:09:14.172Z,83.24
2022-12-14T06:11:41.534Z,83.86
2022-12-14T06:14:09.266Z,84.71
2022-12-14T06:16:36.879Z,84.28
2022-12-14T06:19:05.147Z,83.28
2022-12-14T06:21:35.374Z,83.51
2022-12-14T06:24:02.556Z,83.62
2022-12-14T06:26:31.328Z,84.14
2022-12-14T06:28:58.778Z,82.80
2022-12-14T06:31:28.742Z,84.82
2022-12-14T06:33:59.624Z,84.36
2022-12-14T06:36:28.773Z,84.65
2022-12-14T06:38:56.670Z,84.75
2022-12-14T06:41:24.429Z,83.22
2022-12-14T06:43:51.801Z,82.58
2022-12-14T06:46:21.119Z,82.84
2022-12-14T06:48:53.044Z,81.46
2022-12-14T06:51:20.288Z,82.44
2022-12-14T06:53:49.888Z,82.32
2022-12-14T06:56:17.674Z,83.59
2022-12-14T06:58:45.226Z,84.54
2022-12-14T07:01:14.985Z,86.23
2022-12-14T07:03:42.914Z,86.70
2022-12-14T07:06:10.421Z,87.28
2022-12-14T07:08:38.553Z,87.06
2022-12-14T07:11:08.196Z,87.28
2022-12-14T07:13:36.326Z,87.91
2022-12-14T07:16:05.109Z,87.81
2022-12-14T07:18:32.807Z,87.64
2022-12-14T07:21:01.695Z,88.61
2022-12-14T07:23:30.727Z,86.69
2022-12-14T07:26:02.573Z,87.86
2022-12-14T07:28:29.437Z,88.20
2022-12-14T07:30:56.821Z,88.72
2022-12-14T07:33:24.398Z,88.76
2022-12-14T07:35:51.401Z,89.02
2022-12-14T07:38:18.793Z,88.85
2022-12-14T07:40:45.685Z,88.95
2022-12-14T07:43:12.244Z,88.37
2022-12-14T07:45:38.802Z,87.89
2022-12-14T07:48:07.356Z,86.29
2022-12-14T07:50:33.841Z,83.37
2022-12-14T07:53:00.385Z,85.89
2022-12-14T07:55:26.945Z,86.14
2022-12-14T07:57:53.477Z,86.64
2022-12-14T08:00:20.385Z,84.91
2022-12-14T08:02:47.117Z,85.09
2022-12-14T08:05:13.715Z,83.60
2022-12-14T08:07:40.271Z,83.62
2022-12-14T08:10:07.514Z,83.00
2022-12-14T08:12:34.059Z,84.01
2022-12-14T08:15:00.656Z,84.76
2022-12-14T08:17:27.183Z,84.85
2022-12-14T08:19:53.695Z,84.56
2022-12-14T08:22:20.336Z,84.48
2022-12-14T08:24:49.387Z,83.98
2022-12-14T08:27:16.428Z,83.21
2022-12-14T08:29:42.968Z,82.70
2022-12-14T08:32:09.537Z,83.19
2022-12-14T08:34:36.097Z,83.66
2022-12-14T08:37:02.627Z,83.69
2022-12-14T08:39:29.210Z,81.67
2022-12-14T08:41:55.782Z,82.41
2022-12-14T08:44:22.354Z,82.93
2022-12-14T08:46:49.067Z,80.98
2022-12-14T08:49:16.119Z,78.81
2022-12-14T08:51:42.653Z,81.12
2022-12-14T08:54:09.240Z,81.56
2022-12-14T08:56:36.092Z,81.54
2022-12-14T08:59:02.623Z,81.84
2022-12-14T09:01:33.784Z,82.44
2022-12-14T09:04:03.832Z,82.81
2022-12-14T09:06:31.329Z,82.57
2022-12-14T09:08:58.232Z,81.90
2022-12-14T09:11:25.027Z,82.40
2022-12-14T09:13:55.766Z,81.61
2022-12-14T09:16:24.214Z,82.40
2022-12-14T09:18:50.789Z,82.81
2022-12-14T09:21:18.359Z,81.68
2022-12-14T09:23:46.019Z,80.30
2022-12-14T09:26:21.084Z,79.89
2022-12-14T09:28:53.397Z,79.31
2022-12-14T09:31:22.435Z,80.80
2022-12-14T09:33:51.061Z,81.56
2022-12-14T09:36:19.700Z,79.67
2022-12-14T09:38:51.537Z,78.00
2022-12-14T09:41:34.121Z,77.10
2022-12-14T09:44:18.105Z,76.23
2022-12-14T09:46:59.437Z,76.03
2022-12-14T09:49:33.804Z,75.78
2022-12-14T09:52:05.313Z,77.52
2022-12-14T09:54:39.340Z,76.99
2022-12-14T09:57:13.941Z,78.16
2022-12-14T09:59:40.894Z,79.03
2022-12-14T10:02:46.313Z,80.61
2022-12-14T10:05:33.279Z,80.08
2022-12-14T10:08:16.940Z,79.45
2022-12-14T10:11:18.762Z,76.03
2022-12-14T10:14:06.905Z,74.97
2022-12-14T10:16:54.930Z,72.89
2022-12-14T10:19:27.590Z,77.48
2022-12-14T10:22:10.657Z,78.93
2022-12-14T10:24:43.903Z,80.00
2022-12-14T10:27:21.311Z,79.73
2022-12-14T10:29:57.014Z,81.30
2022-12-14T10:32:37.023Z,79.30
2022-12-14T10:35:17.759Z,78.98
2022-12-14T10:38:22.181Z,79.03
2022-12-14T10:40:50.529Z,77.79
2022-12-14T10:43:24.872Z,77.10
2022-12-14T10:46:29.245Z,81.60
2022-12-14T10:49:16.544Z,80.29
2022-12-14T10:51:50.676Z,78.73
2022-12-14T10:54:32.550Z,78.03
2022-12-14T10:56:59.440Z,77.14
2022-12-14T10:59:34.907Z,77.22
2022-12-14T11:02:10.372Z,77.35
2022-12-14T11:04:40.074Z,74.96
2022-12-14T11:07:10.704Z,76.68
2022-12-14T11:09:38.383Z,75.75
2022-12-14T11:12:07.773Z,75.51
2022-12-14T11:14:37.036Z,73.63
2022-12-14T11:17:04.219Z,70.52
2022-12-14T11:19:30.923Z,69.39
2022-12-14T11:22:15.832Z,71.52
2022-12-14T11:24:48.947Z,70.67
2022-12-14T11:27:19.685Z,71.53
2022-12-14T11:29:49.384Z,72.18
2022-12-14T11:32:25.734Z,76.74
2022-12-14T11:34:57.735Z,77.88
2022-12-14T11:37:28.083Z,78.52
2022-12-14T11:39:57.899Z,78.48
2022-12-14T11:42:25.830Z,76.97
2022-12-14T11:44:53.924Z,76.06
2022-12-14T11:47:28.768Z,77.13
2022-12-14T11:49:58.132Z,76.65
2022-12-14T11:52:42.535Z,75.24
2022-12-14T11:55:26.814Z,75.30
2022-12-14T11:57:57.723Z,78.16
2022-12-14T12:00:26.246Z,78.98
2022-12-14T12:03:00.029Z,82.78
2022-12-14T12:05:28.968Z,82.56
2022-12-14T12:07:58.196Z,82.28
2022-12-14T12:11:02.804Z,79.30
2022-12-14T12:13:35.874Z,77.63
2022-12-14T12:16:10.234Z,79.63
2022-12-14T12:18:59.192Z,79.99
2022-12-14T12:21:35.125Z,78.03
2022-12-14T12:24:04.205Z,78.04
2022-12-14T12:26:36.831Z,80.25
2022-12-14T12:29:29.972Z,80.79
2022-12-14T12:32:15.475Z,83.15
2022-12-14T12:34:56.051Z,83.27
2022-12-14T12:37:33.283Z,85.01
2022-12-14T12:40:13.941Z,85.98
2022-12-14T12:42:53.281Z,85.37
2022-12-14T12:45:31.952Z,86.39
2022-12-14T12:48:05.085Z,86.73
2022-12-14T12:50:39.819Z,86.67
2022-12-14T12:53:21.750Z,87.32
2022-12-14T12:55:58.858Z,86.37
2022-12-14T12:58:30.548Z,87.02
2022-12-14T13:01:02.488Z,87.16
2022-12-14T13:03:38.572Z,87.26
2022-12-14T13:06:16.102Z,86.86
2022-12-14T13:08:47.881Z,86.91
2022-12-14T13:11:32.589Z,87.21
2022-12-14T13:14:14.677Z,87.67
2022-12-14T13:16:42.290Z,86.60
2022-12-14T13:22:18.647Z,87.48
2022-12-14T13:24:50.927Z,88.96
2022-12-14T13:27:26.950Z,88.48
2022-12-14T13:30:10.073Z,88.77
2022-12-14T13:33:01.559Z,89.63
2022-12-14T13:35:46.881Z,89.97
2022-12-14T13:38:45.762Z,88.07
2022-12-14T13:41:35.999Z,87.31
2022-12-14T13:44:08.613Z,88.83
2022-12-14T13:46:35.671Z,88.90
2022-12-14T13:49:07.377Z,90.06
2022-12-14T13:51:46.209Z,90.42
2022-12-14T13:54:43.151Z,90.52
2022-12-14T13:57:13.954Z,89.70
2022-12-14T13:59:45.100Z,89.16
2022-12-14T14:02:32.253Z,89.39
2022-12-14T14:05:20.480Z,87.99
2022-12-14T14:08:34.689Z,87.44
2022-12-14T14:14:11.992Z,89.46
2022-12-14T14:16:49.990Z,89.66
2022-12-14T14:19:27.514Z,89.21
2022-12-14T14:22:27.698Z,87.84
2022-12-14T14:24:59.473Z,88.56
2022-12-14T14:27:34.416Z,87.55
2022-12-14T14:30:01.638Z,86.79
2022-12-14T14:32:40.364Z,87.51
2022-12-14T14:35:28.240Z,89.67
2022-12-14T14:38:01.797Z,89.03
2022-12-14T14:41:06.452Z,88.80
2022-12-14T14:43:28.145Z,90.16
2022-12-14T14:45:58.930Z,90.53
2022-12-14T14:48:42.871Z,91.38
2022-12-14T14:51:12.118Z,89.73
2022-12-14T14:53:40.046Z,92.06
2022-12-14T14:56:32.000Z,91.97
2022-12-14T14:59:16.882Z,93.10
2022-12-14T15:02:25.583Z,90.74
2022-12-14T15:04:57.187Z,90.82
2022-12-14T15:07:28.555Z,91.06
2022-12-14T15:10:49.522Z,93.67
2022-12-14T15:13:45.415Z,93.88
2022-12-14T15:16:29.507Z,94.09
2022-12-14T15:19:21.414Z,93.30
2022-12-14T15:21:54.326Z,93.03
2022-12-14T15:24:22.822Z,93.83
2022-12-14T15:26:50.271Z,94.53
2022-12-14T15:29:22.898Z,94.41
2022-12-14T15:31:59.089Z,92.69
2022-12-14T15:34:26.556Z,93.87
2022-12-14T15:36:53.598Z,94.52
2022-12-14T15:39:46.738Z,94.20
2022-12-14T15:42:15.933Z,93.06
2022-12-14T15:44:50.525Z,93.33
2022-12-14T15:47:43.207Z,94.98
2022-12-14T15:50:20.785Z,94.77
2022-12-14T15:52:48.955Z,94.79
2022-12-14T15:55:36.789Z,94.48
2022-12-14T15:58:34.153Z,94.43
2022-12-14T16:01:22.078Z,95.59
2022-12-14T16:03:53.105Z,94.48
2022-12-14T16:06:21.581Z,94.40
2022-12-14T16:09:21.153Z,95.34
2022-12-14T16:11:52.431Z,94.93
2022-12-14T16:14:26.520Z,93.92
2022-12-14T16:16:54.045Z,94.77
2022-12-14T16:19:28.375Z,94.23
2022-12-14T16:22:24.168Z,94.35
2022-12-14T16:25:17.102Z,94.56
2022-12-14T16:27:50.440Z,94.49
2022-12-14T16:30:22.363Z,94.30
2022-12-14T16:32:53.001Z,95.12
2022-12-14T16:35:26.188Z,96.38
2022-12-14T16:37:55.973Z,96.04
2022-12-14T16:40:34.619Z,95.86
2022-12-14T16:43:03.794Z,95.38
2022-12-14T16:45:36.395Z,97.12
2022-12-14T16:48:09.054Z,97.27
2022-12-14T16:53:24.647Z,97.39
2022-12-14T16:56:07.016Z,97.48
2022-12-14T16:58:35.108Z,97.51
2022-12-14T17:01:06.180Z,97.16
2022-12-14T17:03:33.981Z,98.12
2022-12-14T17:06:04.687Z,96.33
2022-12-14T17:08:33.596Z,97.11
2022-12-14T17:11:00.514Z,96.44
2022-12-14T17:13:27.618Z,98.52
2022-12-14T17:16:00.911Z,99.31
2022-12-14T17:18:32.616Z,98.76
2022-12-14T17:21:00.080Z,98.68
2022-12-14T17:23:27.329Z,99.24
2022-12-14T17:25:54.211Z,98.90
2022-12-14T17:28:24.955Z,97.96
2022-12-14T17:30:57.600Z,96.83
2022-12-14T17:33:29.621Z,96.99
2022-12-14T17:35:56.706Z,96.63
2022-12-14T17:38:24.145Z,98.20
2022-12-14T17:40:53.731Z,98.75
2022-12-14T17:43:24.362Z,98.99
2022-12-14T17:45:51.141Z,99.04
2022-12-14T17:48:17.843Z,98.34
2022-12-14T17:50:47.590Z,97.93
2022-12-14T17:53:19.555Z,97.44
2022-12-14T17:55:46.266Z,97.97
2022-12-14T17:58:13.236Z,97.92
2022-12-14T18:00:59.307Z,97.79
2022-12-14T18:03:26.972Z,98.62
2022-12-14T18:05:53.841Z,98.48
2022-12-14T18:08:22.545Z,97.15
2022-12-14T18:10:52.858Z,97.96
2022-12-14T18:13:19.685Z,98.00
2022-12-14T18:15:49.663Z,96.99
2022-12-14T18:18:19.034Z,98.23
2022-12-14T18:20:50.601Z,99.03
2022-12-14T18:23:18.154Z,99.61
2022-12-14T18:25:51.094Z,100.00
2022-12-14T18:28:19.716Z,100.00
2022-12-14T18:30:50.887Z,100.00
2022-12-14T18:33:21.192Z,99.61
2022-12-14T18:35:49.796Z,99.22
2022-12-14T18:38:17.044Z,97.64
2022-12-14T18:40:49.414Z,98.05
2022-12-14T18:43:21.378Z,96.55
2022-12-14T18:45:48.112Z,97.27
2022-12-14T18:48:15.364Z,97.68
2022-12-14T18:50:43.131Z,97.86
2022-12-14T18:53:20.941Z,96.83
2022-12-14T18:55:48.473Z,97.32
2022-12-14T18:58:20.360Z,96.64
2022-12-14T19:00:48.081Z,98.32
2022-12-14T19:03:17.572Z,97.97
2022-12-14T19:05:45.490Z,98.39
2022-12-14T19:08:13.074Z,98.90
2022-12-14T19:10:43.114Z,98.33
2022-12-14T19:13:19.132Z,98.94
2022-12-14T19:15:50.104Z,99.00
2022-12-14T19:18:17.764Z,98.65
2022-12-14T19:20:44.393Z,99.44
2022-12-14T19:23:17.456Z,98.73
2022-12-14T19:25:44.857Z,98.75
2022-12-14T19:28:30.707Z,98.98
2022-12-14T19:30:58.906Z,98.86
2022-12-14T19:33:26.862Z,98.04
2022-12-14T19:35:53.877Z,99.76
2022-12-14T19:38:20.702Z,99.70
2022-12-14T19:41:06.620Z,98.40
2022-12-14T19:43:34.413Z,98.18
2022-12-14T19:46:06.282Z,98.88
2022-12-14T19:48:32.991Z,99.67
2022-12-14T19:51:07.269Z,98.07
2022-12-14T19:53:34.828Z,98.96
2022-12-14T19:56:01.714Z,98.55
2022-12-14T19:58:29.167Z,99.12
2022-12-14T20:00:56.626Z,98.50
2022-12-14T20:03:23.960Z,98.94
2022-12-14T20:05:59.521Z,98.49
2022-12-14T20:08:28.838Z,98.47
2022-12-14T20:10:56.292Z,99.88
2022-12-14T20:13:24.821Z,99.60
2022-12-14T20:15:53.726Z,98.33
2022-12-14T20:18:22.931Z,98.98
2022-12-14T20:20:50.838Z,98.83
2022-12-14T20:23:20.491Z,98.81
2022-12-14T20:25:47.230Z,99.88
2022-12-14T20:28:13.948Z,99.15
2022-12-14T20:30:46.112Z,99.38
2022-12-14T20:33:13.609Z,99.44
2022-12-14T20:35:40.323Z,98.44
2022-12-14T20:38:06.926Z,99.97
2022-12-14T20:40:38.439Z,99.57
2022-12-14T20:43:06.959Z,99.89
2022-12-14T20:45:41.579Z,99.93
2022-12-14T20:48:09.341Z,98.82
2022-12-14T20:50:38.308Z,98.47
2022-12-14T20:53:05.365Z,99.55
2022-12-14T20:55:32.858Z,99.49
2022-12-14T20:57:59.450Z,99.03
2022-12-14T21:00:26.643Z,100.00
2022-12-14T21:02:53.385Z,100.00
2022-12-14T21:05:20.051Z,98.78
2022-12-14T21:07:46.794Z,98.33
2022-12-14T21:10:13.442Z,97.91
2022-12-14T21:12:40.149Z,97.19
2022-12-14T21:15:07.307Z,97.33
2022-12-14T21:17:33.943Z,96.58
2022-12-14T21:20:00.686Z,97.39
2022-12-14T21:22:28.918Z,98.00
2022-12-14T21:25:05.721Z,98.24
2022-12-14T21:27:35.065Z,98.90
2022-12-14T21:30:01.689Z,98.83
2022-12-14T21:32:28.327Z,98.75
2022-12-14T21:34:54.872Z,98.52
2022-12-14T21:37:22.009Z,96.72
2022-12-14T21:39:55.262Z,96.66
2022-12-14T21:42:26.211Z,97.88
2022-12-14T21:44:54.289Z,97.43
2022-12-14T21:47:22.271Z,98.56
2022-12-14T21:49:49.270Z,100.00
2022-12-14T21:52:18.990Z,100.00
2022-12-14T21:54:45.775Z,100.00
2022-12-14T21:57:35.705Z,100.00
2022-12-14T22:00:03.442Z,98.83
2022-12-14T22:02:30.229Z,99.24
2022-12-14T22:04:57.077Z,99.52
2022-12-14T22:07:28.675Z,99.78
2022-12-14T22:09:55.203Z,99.13
2022-12-14T22:12:22.066Z,99.33
2022-12-14T22:14:49.727Z,99.37
2022-12-14T22:17:16.428Z,99.11
2022-12-14T22:19:43.237Z,100.00
2022-12-14T22:22:15.268Z,100.00
2022-12-14T22:24:42.198Z,99.62
2022-12-14T22:27:10.641Z,99.07
2022-12-14T22:29:37.182Z,99.59
2022-12-14T22:32:03.921Z,99.71
2022-12-14T22:34:30.542Z,98.38
2022-12-14T22:36:57.087Z,99.64
2022-12-14T22:39:23.686Z,99.85
2022-12-14T22:41:50.338Z,99.29
2022-12-14T22:44:16.981Z,99.87
2022-12-14T22:46:43.641Z,100.00
2022-12-14T22:49:14.431Z,98.51
2022-12-14T22:51:41.174Z,99.17
2022-12-14T22:54:07.758Z,99.46
2022-12-14T22:56:42.907Z,99.63
2022-12-14T22:59:17.146Z,99.85
2022-12-14T23:01:44.651Z,99.58
2022-12-14T23:04:17.280Z,99.71
2022-12-14T23:06:43.985Z,100.00
2022-12-14T23:09:29.394Z,100.00
2022-12-14T23:12:19.625Z,100.00
2022-12-14T23:15:06.287Z,99.93
2022-12-14T23:17:51.598Z,100.00
2022-12-14T23:20:36.481Z,100.00
2022-12-14T23:23:25.348Z,99.93
2022-12-14T23:26:10.739Z,100.00
2022-12-14T23:28:56.265Z,100.00
2022-12-14T23:31:41.456Z,100.00
2022-12-14T23:34:26.618Z,100.00
2022-12-14T23:37:15.061Z,100.00
2022-12-14T23:40:04.557Z,100.00
2022-12-14T23:42:49.504Z,100.00
2022-12-14T23:45:34.679Z,100.00
2022-12-14T23:48:19.978Z,100.00
2022-12-14T23:51:05.282Z,100.00
2022-12-14T23:53:50.453Z,100.00
2022-12-14T23:56:35.827Z,100.00
2022-12-14T23:59:24.869Z,100.00
